createdAt,value
2023-03-11T00:00:49.717Z,1.60
2023-03-11T00:02:55.456Z,1.30
2023-03-11T00:04:58.031Z,1.27
2023-03-11T00:07:00.737Z,1.00
2023-03-11T00:09:05.208Z,1.17
2023-03-11T00:11:07.903Z,1.30
2023-03-11T00:13:13.425Z,1.83
2023-03-11T00:15:16.152Z,1.60
2023-03-11T00:17:18.832Z,1.35
2023-03-11T00:19:21.429Z,1.73
2023-03-11T00:21:24.057Z,1.48
2023-03-11T00:23:27.315Z,1.85
2023-03-11T00:25:35.905Z,1.85
2023-03-11T00:27:39.093Z,1.50
2023-03-11T00:29:41.745Z,3.78
2023-03-11T00:31:44.323Z,2.00
2023-03-11T00:33:46.936Z,1.70
2023-03-11T00:35:50.433Z,1.63
2023-03-11T00:37:58.672Z,1.77
2023-03-11T00:40:01.266Z,1.33
2023-03-11T00:42:05.732Z,1.70
2023-03-11T00:44:08.497Z,1.83
2023-03-11T00:46:11.145Z,2.67
2023-03-11T00:48:14.311Z,1.20
2023-03-11T00:50:28.954Z,1.80
2023-03-11T00:52:31.512Z,1.90
2023-03-11T00:54:34.115Z,1.50
2023-03-11T00:56:36.724Z,1.80
2023-03-11T00:58:40.878Z,1.23
2023-03-11T01:00:43.528Z,1.55
2023-03-11T01:02:46.618Z,1.88
2023-03-11T01:04:54.517Z,1.30
2023-03-11T01:06:57.101Z,1.85
2023-03-11T01:08:59.730Z,1.83
2023-03-11T01:11:04.011Z,1.60
2023-03-11T01:13:06.660Z,2.53
2023-03-11T01:15:17.837Z,1.67
2023-03-11T01:17:22.292Z,2.05
2023-03-11T01:19:24.832Z,1.60
2023-03-11T01:21:27.646Z,1.73
2023-03-11T01:23:30.369Z,1.77
2023-03-11T01:25:32.990Z,1.55
2023-03-11T01:27:36.274Z,1.95
2023-03-11T01:29:38.891Z,1.85
2023-03-11T01:31:41.624Z,2.17
2023-03-11T01:33:44.245Z,1.90
2023-03-11T01:35:47.241Z,1.70
2023-03-11T01:37:49.978Z,1.70
2023-03-11T01:39:52.672Z,1.83
2023-03-11T01:41:56.353Z,2.25
2023-03-11T01:43:59.080Z,1.70
2023-03-11T01:46:02.490Z,1.52
2023-03-11T01:48:05.500Z,2.28
2023-03-11T01:50:12.906Z,1.67
2023-03-11T01:52:15.582Z,1.80
2023-03-11T01:54:35.631Z,1.95
2023-03-11T01:56:39.926Z,1.65
2023-03-11T01:58:47.094Z,1.90
2023-03-11T02:00:49.814Z,1.75
2023-03-11T02:02:54.537Z,1.92
2023-03-11T02:04:57.734Z,2.28
2023-03-11T02:07:01.581Z,1.50
2023-03-11T02:09:04.408Z,1.88
2023-03-11T02:11:10.159Z,1.77
2023-03-11T02:13:12.779Z,1.50
2023-03-11T02:15:15.863Z,1.90
2023-03-11T02:17:18.490Z,2.53
2023-03-11T02:19:55.044Z,1.92
2023-03-11T02:21:57.982Z,2.28
2023-03-11T02:24:37.464Z,1.93
2023-03-11T02:26:52.310Z,1.80
2023-03-11T02:28:56.412Z,2.40
2023-03-11T02:30:59.382Z,2.20
2023-03-11T02:33:02.797Z,2.37
2023-03-11T02:35:06.847Z,2.13
2023-03-11T02:37:12.483Z,2.60
2023-03-11T02:39:15.244Z,2.00
2023-03-11T02:41:17.903Z,1.92
2023-03-11T02:43:31.455Z,2.53
2023-03-11T02:45:34.757Z,2.03
2023-03-11T02:47:39.615Z,2.67
2023-03-11T02:49:42.230Z,1.60
2023-03-11T02:51:44.813Z,1.63
2023-03-11T02:53:55.517Z,2.43
2023-03-11T02:55:58.063Z,2.67
2023-03-11T02:58:00.748Z,2.07
2023-03-11T03:00:10.915Z,1.97
2023-03-11T03:02:13.510Z,2.13
2023-03-11T03:04:16.156Z,2.20
2023-03-11T03:06:19.152Z,2.27
2023-03-11T03:08:21.733Z,3.38
2023-03-11T03:10:24.391Z,2.50
2023-03-11T03:12:26.969Z,2.93
2023-03-11T03:14:29.866Z,2.30
2023-03-11T03:16:32.553Z,2.03
2023-03-11T03:18:35.344Z,2.47
2023-03-11T03:20:38.113Z,2.43
2023-03-11T03:22:42.504Z,2.43
2023-03-11T03:24:45.192Z,3.10
2023-03-11T03:26:47.741Z,2.80
2023-03-11T03:28:50.369Z,2.37
2023-03-11T03:30:53.096Z,2.87
2023-03-11T03:32:56.376Z,2.30
2023-03-11T03:34:59.475Z,2.80
2023-03-11T03:37:02.170Z,2.97
2023-03-11T03:39:05.826Z,3.03
2023-03-11T03:41:08.655Z,3.53
2023-03-11T03:43:11.309Z,2.33
2023-03-11T03:45:14.078Z,3.30
2023-03-11T03:47:16.725Z,3.20
2023-03-11T03:49:19.377Z,2.70
2023-03-11T03:51:22.009Z,2.63
2023-03-11T03:53:24.648Z,2.77
2023-03-11T03:55:27.276Z,2.90
2023-03-11T03:57:30.533Z,3.03
2023-03-11T03:59:33.152Z,2.10
2023-03-11T04:01:35.761Z,2.90
2023-03-11T04:03:39.658Z,2.60
2023-03-11T04:05:42.319Z,2.27
2023-03-11T04:07:44.880Z,2.40
2023-03-11T04:09:47.546Z,1.87
2023-03-11T04:11:50.140Z,2.17
2023-03-11T04:13:52.729Z,2.40
2023-03-11T04:15:55.296Z,2.07
2023-03-11T04:17:57.928Z,2.50
2023-03-11T04:20:00.585Z,1.93
2023-03-11T04:22:03.213Z,1.97
2023-03-11T04:24:06.363Z,2.13
2023-03-11T04:26:08.986Z,1.90
2023-03-11T04:28:11.581Z,1.37
2023-03-11T04:30:14.283Z,2.27
2023-03-11T04:32:16.985Z,2.07
2023-03-11T04:34:19.759Z,1.93
2023-03-11T04:36:22.311Z,1.80
2023-03-11T04:38:25.301Z,1.67
2023-03-11T04:40:28.565Z,1.70
2023-03-11T04:42:31.307Z,2.00
2023-03-11T04:44:36.074Z,1.67
2023-03-11T04:46:39.094Z,2.10
2023-03-11T04:48:42.402Z,2.10
2023-03-11T04:50:45.011Z,1.97
2023-03-11T04:52:48.085Z,1.67
2023-03-11T04:54:53.167Z,1.73
2023-03-11T04:56:57.695Z,1.47
2023-03-11T04:59:01.029Z,1.57
2023-03-11T05:01:03.779Z,2.13
2023-03-11T05:03:06.349Z,1.80
2023-03-11T05:05:10.109Z,1.80
2023-03-11T05:07:12.823Z,1.60
2023-03-11T05:09:15.411Z,1.67
2023-03-11T05:11:18.008Z,1.77
2023-03-11T05:13:21.501Z,1.92
2023-03-11T05:15:24.123Z,1.83
2023-03-11T05:17:26.705Z,1.83
2023-03-11T05:19:32.756Z,2.42
2023-03-11T05:21:35.495Z,4.83
2023-03-11T05:23:38.082Z,2.78
2023-03-11T05:25:40.902Z,1.90
2023-03-11T05:27:43.630Z,2.00
2023-03-11T05:29:46.888Z,1.92
2023-03-11T05:31:49.659Z,2.63
2023-03-11T05:33:52.259Z,2.17
2023-03-11T05:35:54.905Z,1.80
2023-03-11T05:37:57.664Z,2.10
2023-03-11T05:40:00.203Z,1.90
2023-03-11T05:42:02.850Z,2.55
2023-03-11T05:44:05.701Z,2.13
2023-03-11T05:46:08.426Z,2.40
2023-03-11T05:48:11.045Z,2.58
2023-03-11T05:50:13.675Z,2.83
2023-03-11T05:52:16.924Z,2.08
2023-03-11T05:54:19.723Z,2.30
2023-03-11T05:56:23.749Z,2.92
2023-03-11T05:58:27.673Z,2.70
2023-03-11T06:00:30.788Z,1.75
2023-03-11T06:02:34.626Z,2.13
2023-03-11T06:04:37.982Z,2.35
2023-03-11T06:06:44.160Z,2.13
2023-03-11T06:08:49.996Z,2.50
2023-03-11T06:10:52.695Z,2.60
2023-03-11T06:12:55.331Z,2.75
2023-03-11T06:14:57.894Z,2.78
2023-03-11T06:17:00.627Z,2.28
2023-03-11T06:19:03.378Z,2.60
2023-03-11T06:21:06.162Z,2.47
2023-03-11T06:23:10.101Z,2.45
2023-03-11T06:25:13.036Z,2.22
2023-03-11T06:27:15.664Z,2.28
2023-03-11T06:29:18.494Z,1.65
2023-03-11T06:31:25.476Z,2.10
2023-03-11T06:33:28.156Z,2.05
2023-03-11T06:35:30.817Z,2.83
2023-03-11T06:37:37.258Z,2.20
2023-03-11T06:39:39.840Z,2.53
2023-03-11T06:41:43.343Z,2.30
2023-03-11T06:43:46.478Z,2.25
2023-03-11T06:45:49.161Z,2.30
2023-03-11T06:47:51.987Z,2.22
2023-03-11T06:49:54.861Z,1.88
2023-03-11T06:51:57.423Z,2.20
2023-03-11T06:54:00.140Z,2.05
2023-03-11T06:56:09.214Z,1.80
2023-03-11T06:58:11.735Z,2.55
2023-03-11T07:00:15.410Z,1.83
2023-03-11T07:02:18.028Z,1.42
2023-03-11T07:04:21.359Z,2.25
2023-03-11T07:06:26.364Z,1.80
2023-03-11T07:08:29.435Z,1.60
2023-03-11T07:10:32.098Z,1.35
2023-03-11T07:12:34.691Z,1.40
2023-03-11T07:14:37.250Z,1.10
2023-03-11T07:16:40.598Z,1.20
2023-03-11T07:18:45.236Z,0.90
2023-03-11T07:20:48.209Z,1.40
2023-03-11T07:22:51.281Z,1.13
2023-03-11T07:24:53.873Z,1.08
2023-03-11T07:26:56.652Z,1.10
2023-03-11T07:28:59.715Z,1.45
2023-03-11T07:31:15.560Z,0.63
2023-03-11T07:33:18.699Z,0.90
2023-03-11T07:35:21.921Z,1.20
2023-03-11T07:37:24.461Z,0.90
2023-03-11T07:39:28.433Z,1.05
2023-03-11T07:41:33.473Z,0.90
2023-03-11T07:43:36.486Z,0.88
2023-03-11T07:45:39.500Z,1.10
2023-03-11T07:47:42.366Z,1.75
2023-03-11T07:49:45.465Z,0.90
2023-03-11T07:51:48.111Z,0.82
2023-03-11T07:53:53.546Z,1.10
2023-03-11T07:56:00.092Z,0.98
2023-03-11T07:58:02.670Z,1.25
2023-03-11T08:00:06.451Z,1.15
2023-03-11T08:02:10.979Z,0.98
2023-03-11T08:04:17.208Z,1.27
2023-03-11T08:06:22.505Z,0.90
2023-03-11T08:08:25.386Z,0.70
2023-03-11T08:10:28.044Z,0.95
2023-03-11T08:12:30.677Z,2.20
2023-03-11T08:14:33.553Z,1.40
2023-03-11T08:16:36.214Z,0.55
2023-03-11T08:18:38.815Z,1.90
2023-03-11T08:20:41.809Z,1.10
2023-03-11T08:22:57.245Z,1.17
2023-03-11T08:25:01.200Z,1.05
2023-03-11T08:27:04.349Z,0.98
2023-03-11T08:29:07.193Z,1.15
2023-03-11T08:31:27.145Z,0.93
2023-03-11T08:33:29.903Z,1.40
2023-03-11T08:35:33.146Z,0.93
2023-03-11T08:37:36.087Z,1.20
2023-03-11T08:39:39.030Z,1.20
2023-03-11T08:41:41.736Z,0.82
2023-03-11T08:43:45.569Z,0.70
2023-03-11T08:45:48.851Z,0.65
2023-03-11T08:47:51.457Z,1.40
2023-03-11T08:49:54.338Z,1.23
2023-03-11T08:51:57.456Z,1.00
2023-03-11T08:54:01.117Z,1.60
2023-03-11T08:56:04.079Z,1.27
2023-03-11T08:58:07.793Z,1.85
2023-03-11T09:00:13.314Z,1.60
2023-03-11T09:02:16.170Z,1.00
2023-03-11T09:04:18.777Z,1.50
2023-03-11T09:06:22.146Z,1.50
2023-03-11T09:08:24.942Z,1.90
2023-03-11T09:10:27.561Z,1.67
2023-03-11T09:12:30.566Z,1.85
2023-03-11T09:14:33.183Z,1.67
2023-03-11T09:16:35.959Z,1.40
2023-03-11T09:18:38.647Z,1.92
2023-03-11T09:20:42.944Z,2.08
2023-03-11T09:22:45.982Z,1.65
2023-03-11T09:24:48.611Z,2.28
2023-03-11T09:26:51.242Z,2.00
2023-03-11T09:28:53.829Z,1.30
2023-03-11T09:30:57.454Z,2.20
2023-03-11T09:33:00.233Z,2.13
2023-03-11T09:35:03.144Z,1.95
2023-03-11T09:37:05.853Z,2.20
2023-03-11T09:39:09.033Z,1.48
2023-03-11T09:41:17.723Z,2.30
2023-03-11T09:43:26.020Z,1.40
2023-03-11T09:45:30.911Z,1.77
2023-03-11T09:47:46.284Z,1.75
2023-03-11T09:50:08.600Z,1.45
2023-03-11T09:52:16.290Z,1.70
2023-03-11T09:54:18.935Z,2.08
2023-03-11T09:56:22.772Z,1.70
2023-03-11T09:58:31.400Z,1.90
2023-03-11T10:00:34.349Z,1.88
2023-03-11T10:02:38.309Z,1.58
2023-03-11T10:04:49.545Z,1.88
2023-03-11T10:06:52.128Z,1.85
2023-03-11T10:09:33.486Z,1.85
2023-03-11T10:11:57.256Z,1.95
2023-03-11T10:14:06.131Z,1.63
2023-03-11T10:16:46.164Z,1.40
2023-03-11T10:18:54.665Z,1.70
2023-03-11T10:21:25.755Z,1.73
2023-03-11T10:23:59.318Z,1.50
2023-03-11T10:26:17.563Z,1.52
2023-03-11T10:28:24.872Z,1.50
2023-03-11T10:30:53.431Z,1.67
2023-03-11T10:33:01.582Z,1.17
2023-03-11T10:35:44.841Z,1.33
2023-03-11T10:38:19.383Z,1.40
2023-03-11T10:40:32.205Z,1.20
2023-03-11T10:42:36.317Z,1.88
2023-03-11T10:44:41.516Z,1.40
2023-03-11T10:46:45.301Z,1.88
2023-03-11T10:48:47.897Z,2.08
2023-03-11T10:51:03.313Z,1.98
2023-03-11T10:53:13.864Z,1.60
2023-03-11T10:55:20.132Z,1.65
2023-03-11T10:57:22.701Z,1.25
2023-03-11T10:59:34.267Z,1.40
2023-03-11T11:01:37.777Z,1.58
2023-03-11T11:03:49.421Z,1.35
2023-03-11T11:06:05.607Z,1.83
2023-03-11T11:08:17.297Z,1.40
2023-03-11T11:10:28.472Z,1.58
2023-03-11T11:12:31.477Z,1.23
2023-03-11T11:14:49.336Z,0.95
2023-03-11T11:16:53.163Z,1.27
2023-03-11T11:19:08.206Z,1.20
2023-03-11T11:21:32.885Z,1.40
2023-03-11T11:24:21.213Z,1.60
2023-03-11T11:26:27.262Z,1.45
2023-03-11T11:28:31.546Z,1.58
2023-03-11T11:30:34.226Z,1.30
2023-03-11T11:32:38.197Z,1.33
2023-03-11T11:34:41.615Z,1.58
2023-03-11T11:36:45.031Z,1.30
2023-03-11T11:38:47.909Z,1.10
2023-03-11T11:40:51.897Z,1.05
2023-03-11T11:42:57.215Z,1.75
2023-03-11T11:45:05.976Z,1.42
2023-03-11T11:47:20.467Z,1.95
2023-03-11T11:49:27.781Z,1.38
2023-03-11T11:51:35.742Z,1.40
2023-03-11T11:53:44.443Z,1.52
2023-03-11T11:55:52.908Z,1.00
2023-03-11T11:57:55.683Z,1.65
2023-03-11T11:59:58.444Z,1.85
2023-03-11T12:02:18.681Z,1.48
2023-03-11T12:05:00.753Z,1.70
2023-03-11T12:07:32.592Z,1.58
2023-03-11T12:10:09.799Z,1.00
2023-03-11T12:12:39.782Z,1.55
2023-03-11T12:14:42.255Z,1.00
2023-03-11T12:16:50.562Z,1.10
2023-03-11T12:19:11.470Z,1.25
2023-03-11T12:21:39.429Z,1.75
2023-03-11T12:24:00.624Z,1.35
2023-03-11T12:26:25.982Z,1.27
2023-03-11T12:29:19.868Z,1.02
2023-03-11T12:31:27.107Z,1.27
2023-03-11T12:33:54.114Z,1.20
2023-03-11T12:35:59.298Z,1.35
2023-03-11T12:38:01.872Z,1.35
2023-03-11T12:40:43.051Z,1.33
2023-03-11T12:42:46.288Z,0.80
2023-03-11T12:44:49.976Z,0.98
2023-03-11T12:47:00.836Z,1.33
2023-03-11T12:49:13.447Z,1.10
2023-03-11T12:51:39.486Z,1.75
2023-03-11T12:53:49.000Z,1.50
2023-03-11T12:56:10.260Z,1.00
2023-03-11T12:58:48.472Z,1.38
2023-03-11T13:01:11.156Z,1.40
2023-03-11T13:03:17.557Z,1.30
2023-03-11T13:05:54.083Z,1.92
2023-03-11T13:08:10.394Z,1.40
2023-03-11T13:10:27.522Z,1.05
2023-03-11T13:12:50.935Z,1.58
2023-03-11T13:15:21.365Z,1.27
2023-03-11T13:17:26.148Z,1.35
2023-03-11T13:19:34.651Z,1.38
2023-03-11T13:21:41.446Z,1.52
2023-03-11T13:23:44.172Z,1.60
2023-03-11T13:25:52.947Z,1.08
2023-03-11T13:28:16.995Z,1.83
2023-03-11T13:30:25.085Z,1.48
2023-03-11T13:32:42.908Z,1.10
2023-03-11T13:35:00.509Z,1.27
2023-03-11T13:37:30.315Z,1.20
2023-03-11T13:39:57.887Z,2.20
2023-03-11T13:42:00.787Z,1.38
2023-03-11T13:44:30.445Z,1.52
2023-03-11T13:46:39.734Z,1.77
2023-03-11T13:48:48.508Z,2.17
2023-03-11T13:50:57.120Z,1.75
2023-03-11T13:53:03.949Z,1.58
2023-03-11T13:55:16.116Z,2.47
2023-03-11T13:57:31.838Z,2.00
2023-03-11T13:59:35.416Z,1.90
2023-03-11T14:01:38.012Z,1.67
2023-03-11T14:03:46.003Z,2.60
2023-03-11T14:05:57.331Z,1.70
2023-03-11T14:08:33.154Z,2.17
2023-03-11T14:10:35.900Z,2.55
2023-03-11T14:12:39.247Z,1.75
2023-03-11T14:14:49.382Z,1.90
2023-03-11T14:16:52.517Z,1.70
2023-03-11T14:19:13.808Z,1.95
2023-03-11T14:21:19.308Z,1.60
2023-03-11T14:23:29.740Z,2.10
2023-03-11T14:25:36.511Z,1.63
2023-03-11T14:27:39.765Z,2.40
2023-03-11T14:29:45.491Z,2.30
2023-03-11T14:31:48.344Z,2.40
2023-03-11T14:33:58.761Z,2.60
2023-03-11T14:36:11.772Z,2.63
2023-03-11T14:38:26.431Z,2.55
2023-03-11T14:40:32.476Z,2.58
2023-03-11T14:42:40.448Z,2.63
2023-03-11T14:44:45.433Z,2.78
2023-03-11T14:46:50.012Z,2.78
2023-03-11T14:48:54.833Z,2.75
2023-03-11T14:51:00.665Z,2.53
2023-03-11T14:53:18.100Z,2.50
2023-03-11T14:55:25.310Z,2.03
2023-03-11T14:57:27.825Z,2.30
2023-03-11T14:59:33.972Z,2.50
2023-03-11T15:01:41.426Z,2.10
2023-03-11T15:03:59.750Z,1.48
2023-03-11T15:06:09.054Z,1.75
2023-03-11T15:08:11.864Z,2.35
2023-03-11T15:10:14.901Z,2.00
2023-03-11T15:12:36.387Z,1.42
2023-03-11T15:14:50.595Z,2.05
2023-03-11T15:16:55.247Z,2.03
2023-03-11T15:19:21.094Z,2.92
2023-03-11T15:21:25.270Z,2.00
2023-03-11T15:23:27.845Z,2.05
2023-03-11T15:25:34.366Z,1.98
2023-03-11T15:27:39.076Z,2.13
2023-03-11T15:29:52.807Z,1.90
2023-03-11T15:31:57.330Z,2.17
2023-03-11T15:34:11.906Z,1.90
2023-03-11T15:36:39.584Z,1.65
2023-03-11T15:38:42.400Z,1.75
2023-03-11T15:40:57.902Z,2.25
2023-03-11T15:43:15.613Z,1.65
2023-03-11T15:45:20.771Z,1.77
2023-03-11T15:47:23.843Z,1.85
2023-03-11T15:49:28.357Z,1.60
2023-03-11T15:51:30.939Z,1.67
2023-03-11T15:53:33.532Z,1.65
2023-03-11T15:55:37.451Z,1.35
2023-03-11T15:57:40.564Z,2.10
2023-03-11T15:59:43.684Z,1.60
2023-03-11T16:01:47.376Z,1.63
2023-03-11T16:03:50.170Z,2.22
2023-03-11T16:05:52.950Z,2.63
2023-03-11T16:07:55.540Z,1.63
2023-03-11T16:09:58.281Z,2.33
2023-03-11T16:12:02.171Z,2.70
2023-03-11T16:14:06.216Z,2.22
2023-03-11T16:16:16.503Z,3.15
2023-03-11T16:18:19.567Z,2.28
2023-03-11T16:20:24.703Z,2.10
2023-03-11T16:22:36.693Z,1.60
2023-03-11T16:24:39.329Z,2.05
2023-03-11T16:26:41.914Z,2.28
2023-03-11T16:28:44.519Z,1.90
2023-03-11T16:30:50.552Z,2.13
2023-03-11T16:32:53.300Z,1.95
2023-03-11T16:34:56.042Z,1.77
2023-03-11T16:36:58.665Z,2.53
2023-03-11T16:39:03.360Z,2.13
2023-03-11T16:41:06.242Z,2.28
2023-03-11T16:43:12.866Z,1.50
2023-03-11T16:45:17.623Z,2.15
2023-03-11T16:47:20.216Z,1.92
2023-03-11T16:49:22.858Z,2.42
2023-03-11T16:51:25.455Z,1.38
2023-03-11T16:53:28.070Z,1.90
2023-03-11T16:55:30.875Z,1.70
2023-03-11T16:57:33.579Z,1.48
2023-03-11T16:59:36.105Z,1.20
2023-03-11T17:01:39.312Z,1.38
2023-03-11T17:03:43.633Z,1.27
2023-03-11T17:05:46.750Z,1.60
2023-03-11T17:08:00.183Z,1.02
2023-03-11T17:10:03.850Z,1.42
2023-03-11T17:12:07.106Z,1.08
2023-03-11T17:14:16.377Z,1.60
2023-03-11T17:16:19.796Z,1.73
2023-03-11T17:18:22.381Z,1.40
2023-03-11T17:20:25.214Z,1.30
2023-03-11T17:22:28.067Z,1.20
2023-03-11T17:24:32.882Z,1.25
2023-03-11T17:26:35.555Z,1.00
2023-03-11T17:28:40.210Z,1.38
2023-03-11T17:30:44.518Z,1.50
2023-03-11T17:32:47.562Z,1.45
2023-03-11T17:34:50.366Z,1.00
2023-03-11T17:36:53.220Z,1.10
2023-03-11T17:38:56.016Z,0.77
2023-03-11T17:40:58.681Z,1.02
2023-03-11T17:43:01.596Z,1.02
2023-03-11T17:45:04.379Z,1.17
2023-03-11T17:47:07.155Z,1.15
2023-03-11T17:49:14.457Z,0.90
2023-03-11T17:51:19.695Z,0.82
2023-03-11T17:53:22.285Z,1.02
2023-03-11T17:55:25.004Z,1.10
2023-03-11T17:57:27.711Z,1.00
2023-03-11T17:59:31.595Z,0.93
2023-03-11T18:01:34.282Z,1.17
2023-03-11T18:03:37.007Z,0.90
2023-03-11T18:05:39.852Z,1.33
2023-03-11T18:07:42.567Z,2.78
2023-03-11T18:09:45.496Z,1.10
2023-03-11T18:11:48.137Z,1.65
2023-03-11T18:13:51.960Z,1.65
2023-03-11T18:15:59.709Z,1.35
2023-03-11T18:18:02.321Z,1.55
2023-03-11T18:20:05.733Z,1.10
2023-03-11T18:22:08.361Z,1.33
2023-03-11T18:24:11.182Z,1.13
2023-03-11T18:26:16.991Z,1.30
2023-03-11T18:28:20.006Z,1.35
2023-03-11T18:30:22.774Z,0.82
2023-03-11T18:32:25.504Z,1.33
2023-03-11T18:34:28.118Z,1.02
2023-03-11T18:36:33.722Z,1.30
2023-03-11T18:38:36.352Z,0.90
2023-03-11T18:40:38.994Z,0.82
2023-03-11T18:42:41.672Z,1.20
2023-03-11T18:44:44.405Z,0.80
2023-03-11T18:46:47.233Z,0.60
2023-03-11T18:48:50.702Z,0.57
2023-03-11T18:50:54.527Z,0.80
2023-03-11T18:52:57.212Z,0.80
2023-03-11T18:54:59.773Z,0.93
2023-03-11T18:57:02.366Z,0.90
2023-03-11T18:59:05.034Z,0.98
2023-03-11T19:01:16.287Z,1.08
2023-03-11T19:03:19.081Z,1.08
2023-03-11T19:05:22.014Z,0.75
2023-03-11T19:07:24.745Z,0.88
2023-03-11T19:09:27.511Z,0.82
2023-03-11T19:11:30.280Z,1.20
2023-03-11T19:13:45.879Z,0.80
2023-03-11T19:15:49.266Z,0.90
2023-03-11T19:18:04.321Z,1.10
2023-03-11T19:20:10.254Z,0.73
2023-03-11T19:22:12.878Z,0.98
2023-03-11T19:24:15.504Z,1.27
2023-03-11T19:26:18.162Z,0.82
2023-03-11T19:28:22.010Z,0.98
2023-03-11T19:30:25.150Z,0.70
2023-03-11T19:32:28.423Z,1.00
2023-03-11T19:34:31.269Z,0.50
2023-03-11T19:36:33.863Z,0.55
2023-03-11T19:38:36.688Z,0.60
2023-03-11T19:40:39.984Z,0.77
2023-03-11T19:42:42.666Z,0.90
2023-03-11T19:44:45.339Z,0.85
2023-03-11T19:46:48.059Z,1.42
2023-03-11T19:48:51.220Z,0.82
2023-03-11T19:50:54.262Z,0.50
2023-03-11T19:52:56.858Z,0.70
2023-03-11T19:54:59.530Z,0.43
2023-03-11T19:57:02.312Z,0.82
2023-03-11T19:59:04.885Z,0.82
2023-03-11T20:01:07.492Z,0.50
2023-03-11T20:03:12.160Z,0.88
2023-03-11T20:05:14.819Z,0.65
2023-03-11T20:07:17.738Z,0.60
2023-03-11T20:09:21.112Z,0.60
2023-03-11T20:11:23.704Z,0.98
2023-03-11T20:13:26.332Z,0.70
2023-03-11T20:15:32.593Z,0.80
2023-03-11T20:17:36.224Z,1.00
2023-03-11T20:19:38.882Z,0.70
2023-03-11T20:21:42.850Z,1.00
2023-03-11T20:23:46.570Z,0.70
2023-03-11T20:25:49.319Z,0.82
2023-03-11T20:27:53.957Z,0.57
2023-03-11T20:29:56.829Z,1.08
2023-03-11T20:31:59.552Z,0.55
2023-03-11T20:34:03.801Z,0.75
2023-03-11T20:36:09.114Z,0.60
2023-03-11T20:38:13.146Z,1.33
2023-03-11T20:40:17.605Z,1.02
2023-03-11T20:42:21.947Z,0.90
2023-03-11T20:44:24.693Z,0.80
2023-03-11T20:46:27.358Z,0.93
2023-03-11T20:48:30.619Z,0.80
2023-03-11T20:50:33.382Z,0.65
2023-03-11T20:52:36.019Z,0.93
2023-03-11T20:54:38.997Z,1.25
2023-03-11T20:56:42.341Z,1.00
2023-03-11T20:58:45.973Z,1.08
2023-03-11T21:00:48.582Z,0.98
2023-03-11T21:02:51.273Z,1.35
2023-03-11T21:04:54.042Z,0.77
2023-03-11T21:06:57.652Z,0.70
2023-03-11T21:09:03.129Z,0.60
2023-03-11T21:11:05.744Z,0.70
2023-03-11T21:13:08.645Z,1.20
2023-03-11T21:15:11.826Z,1.00
2023-03-11T21:17:14.553Z,0.60
2023-03-11T21:19:17.268Z,1.00
2023-03-11T21:21:21.045Z,0.80
2023-03-11T21:23:24.198Z,1.08
2023-03-11T21:25:27.125Z,1.50
2023-03-11T21:27:31.001Z,0.93
2023-03-11T21:29:33.767Z,1.02
2023-03-11T21:31:36.592Z,1.42
2023-03-11T21:33:40.186Z,1.00
2023-03-11T21:35:43.212Z,1.45
2023-03-11T21:37:46.709Z,0.95
2023-03-11T21:39:49.597Z,1.33
2023-03-11T21:41:54.681Z,0.93
2023-03-11T21:43:58.013Z,1.20
2023-03-11T21:46:01.228Z,1.20
2023-03-11T21:48:06.874Z,1.23
2023-03-11T21:50:10.333Z,1.38
2023-03-11T21:52:13.241Z,1.20
2023-03-11T21:54:16.173Z,1.30
2023-03-11T21:56:19.942Z,1.20
2023-03-11T21:58:23.248Z,1.25
2023-03-11T22:00:26.131Z,1.50
2023-03-11T22:02:28.950Z,1.00
2023-03-11T22:04:32.140Z,1.17
2023-03-11T22:06:35.152Z,1.48
2023-03-11T22:08:38.201Z,1.55
2023-03-11T22:10:42.303Z,1.25
2023-03-11T22:12:45.641Z,1.67
2023-03-11T22:14:48.368Z,1.30
2023-03-11T22:16:51.683Z,0.93
2023-03-11T22:18:54.689Z,1.55
2023-03-11T22:21:00.629Z,1.20
2023-03-11T22:23:03.863Z,1.77
2023-03-11T22:25:06.972Z,1.40
2023-03-11T22:27:09.662Z,1.83
2023-03-11T22:29:13.645Z,1.70
2023-03-11T22:31:18.741Z,1.42
2023-03-11T22:33:21.541Z,2.22
2023-03-11T22:35:25.868Z,1.20
2023-03-11T22:37:29.410Z,1.05
2023-03-11T22:39:32.503Z,1.30
2023-03-11T22:41:35.356Z,1.17
2023-03-11T22:43:38.897Z,1.33
2023-03-11T22:45:41.942Z,1.40
2023-03-11T22:47:44.549Z,1.30
2023-03-11T22:49:47.397Z,1.60
2023-03-11T22:51:50.077Z,1.45
2023-03-11T22:53:52.620Z,2.10
2023-03-11T22:55:55.290Z,1.80
2023-03-11T22:57:58.004Z,1.13
2023-03-11T23:00:00.654Z,1.63
2023-03-11T23:02:03.363Z,1.70
2023-03-11T23:04:06.056Z,2.50
2023-03-11T23:06:11.191Z,1.70
2023-03-11T23:08:16.505Z,1.60
2023-03-11T23:10:21.388Z,1.45
2023-03-11T23:12:24.209Z,1.80
2023-03-11T23:14:37.873Z,1.67
2023-03-11T23:16:45.576Z,1.70
2023-03-11T23:18:51.519Z,1.92
2023-03-11T23:20:54.070Z,1.17
2023-03-11T23:22:56.728Z,1.75
2023-03-11T23:25:02.323Z,1.50
2023-03-11T23:27:05.668Z,1.70
2023-03-11T23:29:08.308Z,2.08
2023-03-11T23:31:13.060Z,1.20
2023-03-11T23:33:15.742Z,1.45
2023-03-11T23:35:18.670Z,1.70
2023-03-11T23:37:21.348Z,1.77
2023-03-11T23:39:23.999Z,1.83
2023-03-11T23:41:26.755Z,2.22
2023-03-11T23:43:29.299Z,1.40
2023-03-11T23:45:31.931Z,1.80
2023-03-11T23:47:34.599Z,1.60
2023-03-11T23:49:37.182Z,1.48
2023-03-11T23:51:41.082Z,2.35
2023-03-11T23:53:43.816Z,2.15
2023-03-11T23:55:46.675Z,1.80
2023-03-11T23:57:49.292Z,1.35
2023-03-11T23:59:51.945Z,1.58
